Time;durP1;ratioP1;P1;durP2;ratioP2;P2;SDS_P1;SDS_P2;PMS_P1;PMS_P2;Temp;Humidity;BMP_temperature;BMP_pressure;BME280_temperature;BME280_humidity;BME280_pressure;Samples;Min_cycle;Max_cycle;Signal;HPM_P1;HPM_P2
2022/12/12 00:07:04;;;;;;;1.63;1.30;;;;;;;15.39;75.79;100702.06;20459296;28;20056;-84
2022/12/12 00:23:50;;;;;;;1.30;1.15;;;;;;;15.90;75.75;100791.03;21120370;27;20125;-85
2022/12/12 00:33:51;;;;;;;1.73;1.00;;;;;;;15.89;75.65;100795.56;20470731;28;20130;-85
2022/12/12 00:51:20;;;;;;;1.98;1.30;;;;;;;15.91;75.34;100807.03;21061864;27;20134;-85
2022/12/12 01:01:26;;;;;;;2.53;1.30;;;;;;;15.91;75.63;100793.63;20510306;28;20049;-85
2022/12/12 01:18:32;;;;;;;1.15;0.98;;;;;;;15.91;75.58;100800.84;21040899;27;20129;-85
2022/12/12 01:28:33;;;;;;;0.95;0.90;;;;;;;15.90;75.37;100805.34;20295295;28;20059;-85
2022/12/12 01:46:01;;;;;;;1.10;1.00;;;;;;;15.91;75.44;100814.25;21074713;27;20135;-85
2022/12/12 01:56:06;;;;;;;1.40;1.15;;;;;;;15.91;75.21;100825.84;20445094;28;20048;-85
2022/12/12 02:06:29;;;;;;;1.08;0.98;;;;;;;15.73;75.16;100806.66;21004955;27;20127;-85
2022/12/12 02:16:51;;;;;;;1.30;1.00;;;;;;;15.91;75.13;100833.06;20316953;28;20139;-85
2022/12/12 02:27:30;;;;;;;1.42;1.10;;;;;;;15.92;75.01;100832.91;21123444;27;20126;-85
2022/12/12 02:37:49;;;;;;;1.30;0.98;;;;;;;15.93;74.81;100833.78;20311556;28;20069;-85
2022/12/12 02:48:42;;;;;;;1.40;1.00;;;;;;;15.93;75.07;100831.09;21053421;27;20126;-85
2022/12/12 02:58:42;;;;;;;1.52;1.00;;;;;;;15.93;74.91;100831.09;20273443;28;20183;-85
2022/12/12 03:16:15;;;;;;;1.00;0.90;;;;;;;15.93;74.73;100842.66;20974311;27;20125;-85
2022/12/12 03:26:23;;;;;;;1.20;1.10;;;;;;;15.93;74.74;100836.47;20746335;28;20058;-85
2022/12/12 03:43:14;;;;;;;0.98;0.80;;;;;;;15.83;74.75;100835.44;21120583;27;20117;-85
2022/12/12 03:53:23;;;;;;;1.08;0.98;;;;;;;15.92;74.48;100854.38;20373283;28;20109;-86
2022/12/12 04:04:04;;;;;;;0.77;0.73;;;;;;;15.81;74.61;100835.59;21039144;27;20139;-83
2022/12/12 04:14:27;;;;;;;1.00;0.90;;;;;;;15.93;74.38;100855.25;20260159;28;20072;-83
2022/12/12 04:36:25;;;;;;;1.10;1.00;;;;;;;16.14;73.40;100884.88;20495920;28;20450;-85
2022/12/12 04:46:42;;;;;;;1.08;0.82;;;;;;;16.07;73.73;100897.06;21268067;27;20126;-84
2022/12/12 04:56:43;;;;;;;0.70;0.70;;;;;;;15.85;73.78;100868.38;20949547;28;20143;-85
2022/12/12 05:13:54;;;;;;;1.00;0.90;;;;;;;15.97;73.98;100886.25;21181476;27;20136;-84
2022/12/12 05:23:54;;;;;;;1.00;0.90;;;;;;;15.88;74.03;100870.84;20769619;28;20056;-85
2022/12/12 05:41:26;;;;;;;1.00;0.90;;;;;;;15.93;74.16;100871.38;21208038;27;20576;-85
2022/12/12 05:51:27;;;;;;;0.98;0.88;;;;;;;15.69;73.86;100848.16;20818189;28;20646;-85
2022/12/12 06:08:54;;;;;;;1.08;0.90;;;;;;;15.75;74.01;100861.09;21143484;27;20129;-84
2022/12/12 06:18:55;;;;;;;0.75;0.73;;;;;;;15.68;74.03;100840.22;20800382;28;20061;-85
2022/12/12 06:36:23;;;;;;;0.90;0.80;;;;;;;15.63;73.81;100849.50;21097094;27;20121;-85
2022/12/12 06:46:26;;;;;;;0.77;0.70;;;;;;;15.83;73.91;100881.09;20898307;28;20046;-85
2022/12/12 07:03:52;;;;;;;0.88;0.70;;;;;;;15.93;73.70;100903.59;21039266;27;20481;-85
2022/12/12 07:13:55;;;;;;;1.10;0.80;;;;;;;15.84;73.43;100896.22;20440599;28;20598;-86
2022/12/12 07:30:39;;;;;;;0.90;0.90;;;;;;;15.95;73.72;100915.88;21179692;27;20128;-86
2022/12/12 07:40:40;;;;;;;0.63;0.60;;;;;;;15.79;74.70;100894.75;20528234;28;20055;-87
2022/12/12 07:57:57;;;;;;;1.17;0.75;;;;;;;16.03;75.47;100942.13;21099846;27;20128;-90
2022/12/12 08:07:58;;;;;;;0.60;0.60;;;;;;;16.05;75.56;100948.25;19984357;28;20150;-86
2022/12/12 08:18:25;;;;;;;1.15;0.90;;;;;;;16.08;75.80;100960.56;21042078;27;20128;-88
2022/12/12 08:28:26;;;;;;;1.20;0.80;;;;;;;15.92;75.90;100921.50;20176536;28;20057;-86
2022/12/12 08:38:47;;;;;;;0.70;0.70;;;;;;;16.12;76.14;100950.44;20990953;27;20751;-84
2022/12/12 08:48:48;;;;;;;1.20;0.52;;;;;;;16.13;76.32;100957.50;20380434;28;20587;-84
2022/12/12 09:06:09;;;;;;;0.45;0.45;;;;;;;16.16;76.53;100984.13;20974363;27;20128;-84
2022/12/12 09:16:10;;;;;;;0.98;0.70;;;;;;;16.17;76.60;100989.38;20284792;28;20513;-85
2022/12/12 09:33:26;;;;;;;0.70;0.65;;;;;;;16.17;76.58;100991.19;21059427;27;20131;-84
2022/12/12 09:43:39;;;;;;;0.82;0.75;;;;;;;16.00;76.73;100973.75;20160925;28;20063;-84
2022/12/12 09:54:00;;;;;;;0.90;0.73;;;;;;;16.17;76.58;100991.19;21138139;27;20130;-84
2022/12/12 10:04:10;;;;;;;0.75;0.63;;;;;;;16.19;76.82;100987.41;20197537;28;20061;-87
2022/12/12 10:20:55;;;;;;;0.50;0.50;;;;;;;16.20;76.88;100986.44;21287773;27;20491;-85
2022/12/12 10:31:08;;;;;;;0.73;0.73;;;;;;;16.21;76.90;100982.78;20709405;27;20130;-87
2022/12/12 10:42:40;;;;;;;0.75;0.60;;;;;;;16.09;77.00;100957.75;21064653;27;20130;-86
2022/12/12 10:52:40;;;;;;;0.68;0.63;;;;;;;15.77;76.98;100894.03;20030567;28;20049;-88
2022/12/12 11:02:58;;;;;;;0.70;0.70;;;;;;;16.26;76.88;100968.13;21031138;27;20131;-90
2022/12/12 11:13:10;;;;;;;0.80;0.80;;;;;;;16.25;76.80;100959.19;20313757;28;20054;-85
2022/12/12 11:30:02;;;;;;;1.42;0.90;;;;;;;16.20;76.74;100959.59;21040205;27;20128;-86
2022/12/12 11:40:04;;;;;;;0.93;0.90;;;;;;;15.93;76.49;100914.31;19969586;28;20123;-88
2022/12/12 11:57:32;;;;;;;1.48;1.15;;;;;;;16.15;76.46;100952.88;21157723;27;20582;-88
2022/12/12 12:08:15;;;;;;;1.00;0.90;;;;;;;16.14;76.17;100937.72;20134374;28;20131;-88
2022/12/12 12:24:18;;;;;;;2.05;1.00;;;;;;;16.13;76.08;100936.03;20933510;27;20486;-89
2022/12/12 12:34:57;;;;;;;0.70;0.70;;;;;;;16.12;76.13;100926.25;20245505;28;20052;-89
2022/12/12 12:51:12;;;;;;;0.93;0.82;;;;;;;16.11;76.08;100927.22;20895465;27;20132;-87
2022/12/12 13:01:19;;;;;;;1.98;0.90;;;;;;;16.12;75.87;100928.94;20159338;28;20047;-87
2022/12/12 13:18:33;;;;;;;0.85;0.80;;;;;;;15.81;75.66;100884.75;21007974;27;20135;-88
2022/12/12 13:29:23;;;;;;;1.55;1.10;;;;;;;16.10;75.60;100931.75;20129554;28;20094;-88
2022/12/12 13:45:33;;;;;;;1.35;1.25;;;;;;;16.11;75.28;100935.28;20943493;27;20142;-89
2022/12/12 13:55:34;;;;;;;1.20;1.02;;;;;;;16.11;76.17;100920.00;20172613;28;26775;-86
2022/12/12 14:06:10;;;;;;;1.40;1.30;;;;;;;15.94;76.21;100891.88;21142645;27;20128;-89
2022/12/12 14:16:14;;;;;;;1.50;1.10;;;;;;;16.12;76.73;100934.31;20482591;28;20067;-89
2022/12/12 14:33:19;;;;;;;1.60;1.27;;;;;;;16.02;78.15;100924.31;21139286;27;20128;-89
2022/12/12 14:43:34;;;;;;;1.50;1.20;;;;;;;15.82;78.95;100909.78;20179199;28;21662;-90
2022/12/12 14:54:19;;;;;;;1.80;1.30;;;;;;;16.06;79.40;100947.25;21032400;27;22347;-89
2022/12/12 15:04:29;;;;;;;1.67;1.27;;;;;;;15.89;79.73;100919.06;20425132;28;20050;-87
2022/12/12 15:14:56;;;;;;;1.20;1.10;;;;;;;16.05;80.57;100950.94;21068948;27;20118;-88
2022/12/12 15:24:59;;;;;;;1.35;1.20;;;;;;;16.06;80.57;100954.44;20443177;28;20075;-88
2022/12/12 15:35:19;;;;;;;1.80;1.30;;;;;;;16.06;80.70;100952.63;21000449;27;20129;-88
2022/12/12 15:45:24;;;;;;;1.58;1.35;;;;;;;16.06;81.22;100951.75;20341814;28;20445;-89
2022/12/12 15:56:08;;;;;;;1.52;1.40;;;;;;;16.04;81.45;100957.28;21069634;27;20138;-88
2022/12/12 16:06:16;;;;;;;1.70;1.42;;;;;;;15.87;81.79;100936.22;20082220;28;20060;-85
2022/12/12 16:16:37;;;;;;;2.13;1.25;;;;;;;16.02;82.18;100961.91;21042172;27;20823;-90
2022/12/12 16:26:38;;;;;;;1.50;1.30;;;;;;;16.02;82.32;100958.34;20281874;28;20053;-89
2022/12/12 16:37:00;;;;;;;3.08;1.58;;;;;;;16.03;82.13;100965.44;20957497;27;20588;-87
2022/12/12 16:47:00;;;;;;;3.85;1.98;;;;;;;16.03;81.73;100973.50;20217536;28;20420;-91
2022/12/12 17:03:38;;;;;;;5.43;2.30;;;;;;;16.04;81.87;100986.81;21021897;27;20539;-91
2022/12/12 17:13:45;;;;;;;4.97;2.53;;;;;;;16.03;82.38;100966.31;20345919;28;20057;-90
2022/12/12 17:24:03;;;;;;;4.78;2.53;;;;;;;15.88;82.26;100937.97;20950258;27;20128;-89
2022/12/12 17:34:05;;;;;;;5.53;2.88;;;;;;;16.03;82.06;100962.75;20344467;28;20161;-90
2022/12/12 17:50:59;;;;;;;4.50;2.85;;;;;;;16.02;82.57;100967.28;21046795;27;20489;-92
2022/12/12 18:01:10;;;;;;;4.50;2.55;;;;;;;16.01;82.68;100968.25;20201008;28;20047;-95
2022/12/12 18:21:56;;;;;;;4.72;2.60;;;;;;;15.99;82.78;100954.09;26266248;22;20095;-94
2022/12/12 18:32:03;;;;;;;4.82;2.92;;;;;;;16.02;83.07;100961.03;26020058;22;20027;-87
2022/12/12 18:52:20;;;;;;;4.28;2.55;;;;;;;15.95;82.93;100928.47;21126999;27;20124;-86
2022/12/12 19:02:21;;;;;;;6.07;2.53;;;;;;;16.04;82.57;100951.91;20403388;28;20054;-90
2022/12/12 19:12:49;;;;;;;5.13;3.20;;;;;;;16.06;82.62;100949.94;21021804;27;20139;-91
2022/12/12 19:22:50;;;;;;;6.00;2.90;;;;;;;15.96;82.50;100943.63;20321673;28;20063;-92
2022/12/12 19:33:18;;;;;;;4.53;2.75;;;;;;;16.05;82.31;100960.78;21021481;27;20551;-89
2022/12/12 19:43:19;;;;;;;4.40;2.63;;;;;;;16.04;82.77;100968.00;20719380;28;20069;-90
2022/12/12 19:59:15;;;;;;;4.60;2.65;;;;;;;16.03;82.22;100958.25;21066317;27;20127;-90
2022/12/12 20:09:25;;;;;;;6.40;3.13;;;;;;;16.04;82.44;100964.47;20545641;28;21541;-90
2022/12/12 20:24:55;;;;;;;4.10;3.20;;;;;;;16.20;81.06;100946.16;21152814;27;20393;-89
2022/12/12 20:34:56;;;;;;;4.95;3.30;;;;;;;16.04;80.74;100949.22;20495359;28;20069;-87
2022/12/12 20:51:03;;;;;;;3.85;2.70;;;;;;;16.14;80.87;100986.06;21104979;27;20583;-89
2022/12/12 21:01:24;;;;;;;4.32;2.70;;;;;;;16.09;81.13;100984.63;20760943;28;20135;-90
2022/12/12 21:12:45;;;;;;;3.22;2.60;;;;;;;16.07;81.25;100991.94;21118674;27;20134;-89
2022/12/12 21:22:46;;;;;;;4.13;3.40;;;;;;;15.74;81.01;100942.59;20209070;28;20058;-91
2022/12/12 21:39:58;;;;;;;4.03;2.53;;;;;;;16.03;81.03;100985.09;21097878;27;20145;-90
2022/12/12 21:49:59;;;;;;;4.38;2.90;;;;;;;16.02;81.06;100994.13;20348639;28;20061;-88
2022/12/12 22:06:17;;;;;;;3.63;2.50;;;;;;;15.84;80.57;100950.78;21017143;27;20137;-90
2022/12/12 22:16:18;;;;;;;;;;;;;;;16.01;80.80;100983.50;20408056;28;20056;-90
2022/12/12 22:26:43;;;;;;;4.17;3.10;;;;;;;16.27;79.53;100986.78;21134025;27;20404;-89
2022/12/12 22:36:45;;;;;;;3.28;2.40;;;;;;;16.20;79.18;100982.88;20710043;28;22014;-90
2022/12/12 22:47:14;;;;;;;4.60;2.60;;;;;;;16.14;79.55;100980.69;20997347;27;20128;-90
2022/12/12 22:57:15;;;;;;;4.15;2.95;;;;;;;15.88;79.59;100944.22;20089646;28;20072;-90
2022/12/12 23:07:41;;;;;;;3.35;2.70;;;;;;;15.76;79.53;100937.94;21241671;27;20130;-90
2022/12/12 23:17:42;;;;;;;3.78;2.65;;;;;;;16.02;79.38;100980.72;21017940;27;20055;-91
2022/12/12 23:34:11;;;;;;;3.92;3.05;;;;;;;15.99;79.40;100978.28;21170961;27;20136;-90
2022/12/12 23:44:13;;;;;;;3.50;2.80;;;;;;;15.95;79.63;100960.69;20709997;28;20045;-90
